AFR181 WSSS-LFPG
Flight info
| Callsign | AFR181 |
|---|---|
| Flight time | N/A |
| Altitude | 28000 |
| Route | AROSO5B AROSO Y513 KALIL Y501 RINBA R325 VAS/N0516F290 A457 HTY/N0506F280 W14 PUT L759 SATVA/N0514F300 L759 BBS W50 BBN R460 LKN/N0505F320 M890 JAL R594 SSB L626 DPN G333 MERUN L750 RANAH B801 NINOP/N0492F340 A909 RODAR M11 ERLEV T923 SUBUT T916 MATAL DCT REBLO UR317 TBN UM11 CRM UL746 ODERO L746 LUGEB DCT DIRAL/N0481F360 DCT ANASA DCT ROTAR DCT SRN DCT CERVI DCT MOLUS DCT UNKIR DCT GIVRI DCT TINIL |
| Aircraft | B77W/H-SDE1E2E3FGHIJ2J3J4J5M1RWXY/LB1D1 |
Departure
| Time | N/A |
|---|---|
| Airport | Singapore Changi Airport (WSSS) |
Arrival
| Time | 2026-05-06 16:23 |
|---|---|
| Airport | Charles de Gaulle International Airport (LFPG) |
| Time | Latitude | Longitude | Altitude | Speed | Heading |
|---|---|---|---|---|---|
| 2026-05-06 16:06 | 46.21870 | 7.09586 | 35810 ft | 474 kts | 302° |
| 2026-05-06 16:07 | 46.52436 | 6.48267 | 36017 ft | 477 kts | 294° |
| 2026-05-06 16:07 | 46.65634 | 6.13895 | 36048 ft | 494 kts | 296° |
| 2026-05-06 16:07 | 46.79074 | 5.79279 | 35894 ft | 486 kts | 297° |
| 2026-05-06 16:08 | 46.83260 | 5.71186 | 35895 ft | 492 kts | 319° |
| 2026-05-06 16:08 | 46.86157 | 5.68517 | 35912 ft | 495 kts | 333° |
| 2026-05-06 16:08 | 46.92366 | 5.64175 | 35918 ft | 496 kts | 329° |
| 2026-05-06 16:09 | 46.98392 | 5.59319 | 35918 ft | 499 kts | 328° |
| 2026-05-06 16:09 | 47.38066 | 5.26972 | 35880 ft | 501 kts | 329° |
| 2026-05-06 16:10 | 47.61846 | 5.07132 | 33354 ft | 478 kts | 322° |
| 2026-05-06 16:10 | 47.81496 | 4.81120 | 27663 ft | 465 kts | 321° |
| 2026-05-06 16:10 | 48.00528 | 4.56557 | 22957 ft | 438 kts | 315° |
| 2026-05-06 16:10 | 48.16537 | 4.31333 | 19837 ft | 415 kts | 314° |
| 2026-05-06 16:11 | 48.32947 | 4.07908 | 17330 ft | 399 kts | 316° |
| 2026-05-06 16:11 | 48.48672 | 3.85080 | 14623 ft | 387 kts | 315° |
| 2026-05-06 16:11 | 48.63939 | 3.62697 | 12058 ft | 378 kts | 315° |
| 2026-05-06 16:11 | 48.73455 | 3.48667 | 10114 ft | 343 kts | 315° |
| 2026-05-06 16:12 | 48.75132 | 3.46190 | 10054 ft | 329 kts | 315° |
| 2026-05-06 16:12 | 48.76739 | 3.43813 | 9959 ft | 317 kts | 315° |
| 2026-05-06 16:12 | 48.78283 | 3.41527 | 9862 ft | 304 kts | 315° |
| 2026-05-06 16:12 | 48.79677 | 3.39258 | 9706 ft | 286 kts | 309° |
| 2026-05-06 16:13 | 48.80868 | 3.36925 | 9465 ft | 275 kts | 307° |
| 2026-05-06 16:13 | 48.81987 | 3.34631 | 9188 ft | 267 kts | 307° |
| 2026-05-06 16:13 | 48.83086 | 3.32377 | 8804 ft | 264 kts | 307° |
| 2026-05-06 16:13 | 48.84176 | 3.30155 | 8414 ft | 262 kts | 307° |
| 2026-05-06 16:14 | 48.85250 | 3.27979 | 8008 ft | 260 kts | 307° |
| 2026-05-06 16:14 | 48.86347 | 3.25765 | 7660 ft | 265 kts | 307° |
| 2026-05-06 16:14 | 48.87456 | 3.23535 | 7409 ft | 264 kts | 308° |
| 2026-05-06 16:14 | 48.88556 | 3.21326 | 7191 ft | 260 kts | 307° |
| 2026-05-06 16:15 | 48.89650 | 3.19134 | 6932 ft | 262 kts | 308° |
| 2026-05-06 16:15 | 48.90748 | 3.16930 | 6672 ft | 260 kts | 308° |
| 2026-05-06 16:15 | 48.91826 | 3.14765 | 6455 ft | 255 kts | 308° |
| 2026-05-06 16:15 | 48.92889 | 3.12627 | 6214 ft | 251 kts | 308° |
| 2026-05-06 16:16 | 48.93921 | 3.10554 | 6002 ft | 248 kts | 308° |
| 2026-05-06 16:16 | 48.94958 | 3.08469 | 5781 ft | 246 kts | 308° |
| 2026-05-06 16:16 | 48.95996 | 3.06380 | 5550 ft | 249 kts | 308° |
| 2026-05-06 16:16 | 48.97030 | 3.04304 | 5413 ft | 243 kts | 308° |
| 2026-05-06 16:17 | 48.98034 | 3.02278 | 5204 ft | 237 kts | 308° |
| 2026-05-06 16:17 | 48.99015 | 3.00299 | 5009 ft | 232 kts | 308° |
| 2026-05-06 16:17 | 48.99974 | 2.98363 | 4804 ft | 226 kts | 308° |
| 2026-05-06 16:17 | 49.00836 | 2.96421 | 4588 ft | 218 kts | 292° |
| 2026-05-06 16:18 | 49.01058 | 2.94208 | 4434 ft | 207 kts | 275° |
| 2026-05-06 16:18 | 49.01093 | 2.92044 | 4313 ft | 201 kts | 272° |
| 2026-05-06 16:18 | 49.01047 | 2.89992 | 4115 ft | 191 kts | 270° |
| 2026-05-06 16:18 | 49.00959 | 2.88050 | 4000 ft | 184 kts | 269° |
| 2026-05-06 16:19 | 49.00861 | 2.86112 | 3740 ft | 182 kts | 269° |
| 2026-05-06 16:19 | 49.00761 | 2.84214 | 3492 ft | 178 kts | 269° |
| 2026-05-06 16:19 | 49.00660 | 2.82335 | 3260 ft | 179 kts | 269° |
| 2026-05-06 16:19 | 49.00560 | 2.80440 | 3028 ft | 180 kts | 269° |
| 2026-05-06 16:20 | 49.00460 | 2.78559 | 2789 ft | 175 kts | 269° |
| 2026-05-06 16:20 | 49.00364 | 2.76785 | 2533 ft | 160 kts | 269° |
| 2026-05-06 16:20 | 49.00279 | 2.75177 | 2361 ft | 150 kts | 270° |
| 2026-05-06 16:20 | 49.00196 | 2.73589 | 2151 ft | 154 kts | 270° |
| 2026-05-06 16:21 | 49.00110 | 2.71978 | 1928 ft | 151 kts | 270° |
| 2026-05-06 16:21 | 49.00027 | 2.70394 | 1733 ft | 149 kts | 270° |
| 2026-05-06 16:21 | 48.99948 | 2.68913 | 1533 ft | 149 kts | 270° |
| 2026-05-06 16:21 | 48.99864 | 2.67342 | 1329 ft | 149 kts | 270° |
| 2026-05-06 16:22 | 48.99781 | 2.65766 | 1110 ft | 149 kts | 269° |
| 2026-05-06 16:22 | 48.99701 | 2.64231 | 862 ft | 142 kts | 270° |
| 2026-05-06 16:22 | 48.99628 | 2.62768 | 692 ft | 138 kts | 268° |
| 2026-05-06 16:22 | 48.99544 | 2.61316 | 537 ft | 140 kts | 267° |
| 2026-05-06 16:23 | 48.99465 | 2.59845 | 374 ft | 133 kts | 265° |
| 2026-05-06 16:23 | 48.99398 | 2.58593 | 361 ft | 98 kts | 265° |
| 2026-05-06 16:23 | 48.99360 | 2.57843 | 357 ft | 50 kts | 265° |
| 2026-05-06 16:23 | 48.99356 | 2.57448 | 359 ft | 30 kts | 283° |
| 2026-05-06 16:24 | 48.99411 | 2.57144 | 364 ft | 29 kts | 285° |
| 2026-05-06 16:24 | 48.99452 | 2.56926 | 359 ft | 20 kts | 286° |
| 2026-05-06 16:24 | 48.99476 | 2.56767 | 364 ft | 13 kts | 269° |
| 2026-05-06 16:24 | 48.99502 | 2.56652 | 363 ft | 12 kts | 326° |
| 2026-05-06 16:25 | 48.99585 | 2.56629 | 359 ft | 12 kts | 355° |
| 2026-05-06 16:25 | 48.99670 | 2.56617 | 365 ft | 12 kts | 355° |
| 2026-05-06 16:25 | 48.99760 | 2.56607 | 367 ft | 13 kts | 355° |
| 2026-05-06 16:25 | 48.99838 | 2.56603 | 364 ft | 11 kts | 354° |
| 2026-05-06 16:26 | 48.99909 | 2.56627 | 368 ft | 11 kts | 41° |
| 2026-05-06 16:26 | 48.99927 | 2.56740 | 365 ft | 11 kts | 85° |
| 2026-05-06 16:26 | 48.99934 | 2.56860 | 359 ft | 11 kts | 85° |
| 2026-05-06 16:26 | 48.99940 | 2.56980 | 362 ft | 12 kts | 85° |
| 2026-05-06 16:27 | 48.99947 | 2.57102 | 365 ft | 12 kts | 85° |
| 2026-05-06 16:27 | 48.99953 | 2.57224 | 363 ft | 10 kts | 85° |
| 2026-05-06 16:27 | 49.00010 | 2.57283 | 366 ft | 11 kts | 21° |
| 2026-05-06 16:27 | 49.00043 | 2.57387 | 359 ft | 12 kts | 84° |
| 2026-05-06 16:28 | 49.00049 | 2.57488 | 364 ft | 6 kts | 83° |
| 2026-05-06 16:28 | 49.00079 | 2.57532 | 362 ft | 7 kts | 12° |
| 2026-05-06 16:28 | 49.00117 | 2.57532 | 359 ft | 0 kts | 356° |